createdAt,value
2023-05-10T00:00:03.402Z,74.94922
2023-05-10T00:02:03.452Z,74.92383
2023-05-10T00:04:03.344Z,74.84082
2023-05-10T00:06:03.236Z,74.68652
2023-05-10T00:07:28.385Z,75.11914
2023-05-10T00:09:28.419Z,74.73828
2023-05-10T00:11:28.617Z,74.51074
2023-05-10T00:13:28.712Z,74.41504
2023-05-10T00:15:28.482Z,74.42285
2023-05-10T00:17:28.553Z,74.88379
2023-05-10T00:19:28.454Z,74.66895
2023-05-10T00:23:16.892Z,74.32617
2023-05-10T00:25:16.981Z,74.57715
2023-05-10T00:27:16.973Z,75.94824
2023-05-10T00:29:16.975Z,73.95605
2023-05-10T00:31:17.345Z,74.625
2023-05-10T00:33:17.143Z,74.19043
2023-05-10T00:35:16.764Z,73.8457
2023-05-10T00:38:15.049Z,73.80176
2023-05-10T00:40:15.573Z,75.07129
2023-05-10T00:42:15.004Z,77.60742
2023-05-10T00:44:14.989Z,78.47461
2023-05-10T00:46:15.164Z,78.08691
2023-05-10T00:48:15.021Z,76.96484
2023-05-10T00:50:15.334Z,76.9082
2023-05-10T00:53:09.145Z,76.1875
2023-05-10T00:55:09.151Z,76.9082
2023-05-10T00:57:09.221Z,77.27148
2023-05-10T00:59:09.154Z,76.17871
2023-05-10T01:01:09.219Z,76.45703
2023-05-10T01:03:09.445Z,76.89258
2023-05-10T01:05:09.260Z,76.63574
2023-05-10T01:08:12.849Z,75.41992
2023-05-10T01:10:12.802Z,75.54883
2023-05-10T01:12:12.822Z,77.66113
2023-05-10T01:14:12.852Z,76.95215
2023-05-10T01:16:12.979Z,76.56934
2023-05-10T01:18:12.922Z,75.37598
2023-05-10T01:20:12.783Z,76.72363
2023-05-10T01:23:11.989Z,76.02832
2023-05-10T01:25:12.002Z,76.52246
2023-05-10T01:27:12.001Z,74.6748
2023-05-10T01:29:11.956Z,75.74512
2023-05-10T01:31:12.149Z,75.14355
2023-05-10T01:33:12.103Z,75.59375
2023-05-10T01:35:11.968Z,75.48926
2023-05-10T01:37:11.950Z,75.07617
2023-05-10T01:38:46.185Z,75.26563
2023-05-10T01:40:46.202Z,75.22168
2023-05-10T01:42:46.307Z,74.10156
2023-05-10T01:44:46.210Z,75.12109
2023-05-10T01:46:46.273Z,74.62793
2023-05-10T01:48:46.228Z,74.0791
2023-05-10T01:50:46.186Z,75.33984
2023-05-10T01:53:23.178Z,75.1084
2023-05-10T01:55:23.118Z,75.19922
2023-05-10T01:57:23.211Z,74.27441
2023-05-10T01:59:23.151Z,75.2002
2023-05-10T02:01:23.315Z,74.39063
2023-05-10T02:03:23.385Z,74.56152
2023-05-10T02:05:23.142Z,75.57813
2023-05-10T02:07:23.122Z,74.03809
2023-05-10T02:08:54.715Z,74.08301
2023-05-10T02:10:54.644Z,74.89746
2023-05-10T02:12:54.560Z,75.23828
2023-05-10T02:14:54.467Z,74.85938
2023-05-10T02:16:54.654Z,76.13086
2023-05-10T02:18:54.438Z,76.13965
2023-05-10T02:20:54.443Z,76.26563
2023-05-10T02:24:01.807Z,75.15234
2023-05-10T02:26:01.770Z,77.1582
2023-05-10T02:28:01.811Z,76.9375
2023-05-10T02:30:01.831Z,75.76953
2023-05-10T02:32:01.955Z,76.0498
2023-05-10T02:34:01.830Z,75.63574
2023-05-10T02:36:01.771Z,75.76563
2023-05-10T02:39:53.289Z,76.3252
2023-05-10T02:41:53.248Z,78.68848
2023-05-10T02:43:53.455Z,77.79297
2023-05-10T02:45:53.388Z,77.39551
2023-05-10T02:47:53.266Z,77.79102
2023-05-10T02:49:53.281Z,77.38965
2023-05-10T02:51:53.287Z,75.61035
2023-05-10T02:54:48.861Z,77.16309
2023-05-10T02:56:48.918Z,77.09863
2023-05-10T02:58:49.441Z,78.38672
2023-05-10T03:00:48.890Z,77.61133
2023-05-10T03:02:49.430Z,77.78516
2023-05-10T03:04:49.191Z,78.29102
2023-05-10T03:06:48.884Z,76.5625
2023-05-10T03:09:31.688Z,76.03711
2023-05-10T03:11:31.754Z,76.24512
2023-05-10T03:13:31.933Z,75.76074
2023-05-10T03:15:31.683Z,76.82422
2023-05-10T03:17:31.894Z,76.68066
2023-05-10T03:19:31.841Z,77.23926
2023-05-10T03:21:31.855Z,75.91309
2023-05-10T03:24:36.377Z,75.74707
2023-05-10T03:26:36.291Z,75.93555
2023-05-10T03:28:36.221Z,74.26367
2023-05-10T03:30:36.235Z,75.36328
2023-05-10T03:32:36.375Z,75.39258
2023-05-10T03:34:36.223Z,75.67871
2023-05-10T03:36:36.182Z,75.64453
2023-05-10T03:40:29.872Z,75.39941
2023-05-10T03:42:29.809Z,77.52539
2023-05-10T03:44:29.886Z,76.55371
2023-05-10T03:46:29.795Z,76.62207
2023-05-10T03:48:29.984Z,76.32715
2023-05-10T03:50:29.944Z,76.55566
2023-05-10T03:52:29.871Z,76.99805
2023-05-10T03:55:03.099Z,78.22168
2023-05-10T03:57:03.326Z,77.96777
2023-05-10T03:59:03.232Z,76.35742
2023-05-10T04:01:03.354Z,76.60352
2023-05-10T04:03:03.375Z,75.65918
2023-05-10T04:05:03.301Z,76.52832
2023-05-10T04:07:03.338Z,76.0332
2023-05-10T04:10:47.938Z,76.14355
2023-05-10T04:12:47.965Z,75.82227
2023-05-10T04:14:47.889Z,75.65039
2023-05-10T04:16:48.122Z,76.12891
2023-05-10T04:18:47.886Z,75.49414
2023-05-10T04:20:47.828Z,75.44434
2023-05-10T04:22:48.118Z,75.16895
2023-05-10T04:25:06.060Z,74.07324
2023-05-10T04:27:05.896Z,74.95898
2023-05-10T04:29:06.289Z,74.8584
2023-05-10T04:31:06.116Z,75.58496
2023-05-10T04:33:05.994Z,75.69727
2023-05-10T04:35:06.124Z,76.69531
2023-05-10T04:37:05.884Z,76.75488
2023-05-10T04:39:05.778Z,75.66699
2023-05-10T04:40:39.525Z,75.65625
2023-05-10T04:42:39.538Z,76.21973
2023-05-10T04:44:39.605Z,76.03613
2023-05-10T04:46:39.578Z,76.82031
2023-05-10T04:48:39.653Z,76.7168
2023-05-10T04:50:39.539Z,76.48926
2023-05-10T04:52:39.862Z,76.32031
2023-05-10T04:56:06.068Z,76.92773
2023-05-10T04:58:05.459Z,76.86426
2023-05-10T05:00:05.221Z,75.81055
2023-05-10T05:02:05.307Z,77.93652
2023-05-10T05:04:05.423Z,76.99902
2023-05-10T05:06:05.552Z,76.63379
2023-05-10T05:08:05.338Z,76.9082
2023-05-10T05:11:05.941Z,77.17871
2023-05-10T05:13:05.973Z,75.96777
2023-05-10T05:15:09.824Z,76.10254
2023-05-10T05:17:05.871Z,75.79199
2023-05-10T05:19:05.809Z,74.88867
2023-05-10T05:21:05.715Z,75.7998
2023-05-10T05:23:05.779Z,75.77344
2023-05-10T05:26:31.235Z,75.5791
2023-05-10T05:28:31.344Z,78.30078
2023-05-10T05:30:31.242Z,78.14258
2023-05-10T05:32:31.258Z,77.08301
2023-05-10T05:34:31.233Z,77.05664
2023-05-10T05:36:31.208Z,77.4375
2023-05-10T05:38:31.193Z,76.70508
2023-05-10T05:41:52.230Z,78.04199
2023-05-10T05:43:52.290Z,78.64746
2023-05-10T05:45:52.386Z,77.90234
2023-05-10T05:47:52.347Z,77.71973
2023-05-10T05:49:52.216Z,76.72559
2023-05-10T05:51:52.277Z,77.84668
2023-05-10T05:53:52.298Z,78.02637
2023-05-10T05:56:52.334Z,77.5957
2023-05-10T05:58:52.446Z,76.4873
2023-05-10T06:00:52.331Z,75.49902
2023-05-10T06:02:52.491Z,76.33398
2023-05-10T06:04:52.394Z,79.29199
2023-05-10T06:06:52.363Z,78.40039
2023-05-10T06:08:52.420Z,77.97266
2023-05-10T06:11:53.015Z,77.01074
2023-05-10T06:13:53.097Z,76.64258
2023-05-10T06:15:53.131Z,76.01074
2023-05-10T06:17:53.162Z,75.4541
2023-05-10T06:19:53.171Z,77.39941
2023-05-10T06:21:54.235Z,77.33398
2023-05-10T06:23:53.121Z,76.78809
2023-05-10T06:26:50.317Z,75.96094
2023-05-10T06:28:50.278Z,76.32617
2023-05-10T06:30:50.239Z,76.56738
2023-05-10T06:32:50.465Z,75.625
2023-05-10T06:34:50.271Z,77.66992
2023-05-10T06:36:50.297Z,78.05566
2023-05-10T06:38:50.297Z,77.49316
2023-05-10T06:42:17.832Z,74.81836
2023-05-10T06:44:17.936Z,77.64453
2023-05-10T06:46:17.907Z,78.71582
2023-05-10T06:48:18.027Z,79.70996
2023-05-10T06:50:17.941Z,77.86719
2023-05-10T06:52:17.893Z,78.55762
2023-05-10T06:54:17.991Z,79.16309
2023-05-10T06:57:32.284Z,78.49414
2023-05-10T06:59:21.732Z,79.18066
2023-05-10T07:01:21.862Z,77.47852
2023-05-10T07:03:21.810Z,78.86133
2023-05-10T07:05:22.240Z,78.76758
2023-05-10T07:07:21.672Z,77.8584
2023-05-10T07:09:21.711Z,77.68066
2023-05-10T07:12:15.974Z,78.00586
2023-05-10T07:14:12.437Z,80.19141
2023-05-10T07:16:12.628Z,79.24121
2023-05-10T07:18:12.607Z,78.77637
2023-05-10T07:20:12.711Z,78.94336
2023-05-10T07:22:12.472Z,79.04004
2023-05-10T07:24:12.443Z,80.03906
2023-05-10T07:27:19.921Z,80.07715
2023-05-10T07:29:19.920Z,79.55859
2023-05-10T07:31:20.660Z,78.50781
2023-05-10T07:33:20.304Z,77.11035
2023-05-10T07:35:20.209Z,77.14941
2023-05-10T07:37:20.152Z,77.10742
2023-05-10T07:39:28.156Z,76.29004
2023-05-10T07:42:48.357Z,77.62695
2023-05-10T07:44:48.271Z,79.81543
2023-05-10T07:46:48.239Z,80.80957
2023-05-10T07:48:48.206Z,80.03613
2023-05-10T07:50:48.254Z,79.14453
2023-05-10T07:52:48.201Z,79.85254
2023-05-10T07:54:48.231Z,78.16309
2023-05-10T07:57:36.308Z,76.33008
2023-05-10T07:59:36.258Z,78.49414
2023-05-10T08:01:36.307Z,78.49805
2023-05-10T08:03:36.434Z,77.93359
2023-05-10T08:05:36.337Z,75.77344
2023-05-10T08:07:36.312Z,75.7373
2023-05-10T08:09:36.289Z,77.07324
2023-05-10T08:12:38.417Z,77.5752
2023-05-10T08:14:38.383Z,77.95898
2023-05-10T08:16:38.401Z,77.16016
2023-05-10T08:18:38.534Z,73.98633
2023-05-10T08:20:38.395Z,74.86035
2023-05-10T08:22:38.421Z,74.48828
2023-05-10T08:24:38.486Z,74.69336
2023-05-10T08:26:38.406Z,72.37988
2023-05-10T08:28:40.204Z,74.46191
2023-05-10T08:30:39.830Z,74.31738
2023-05-10T08:32:39.986Z,72.34863
2023-05-10T08:34:39.877Z,73.25195
2023-05-10T08:36:39.943Z,73.00781
2023-05-10T08:38:39.947Z,74.81445
2023-05-10T08:40:39.899Z,76.02441
2023-05-10T08:43:16.959Z,76.42383
2023-05-10T08:45:17.459Z,75.01074
2023-05-10T08:47:17.243Z,76.08594
2023-05-10T08:49:16.990Z,74.46582
2023-05-10T08:51:17.022Z,73.61133
2023-05-10T08:53:16.908Z,74.30176
2023-05-10T08:55:17.475Z,73.37793
2023-05-10T08:58:47.222Z,73.53809
2023-05-10T09:00:47.305Z,74.61523
2023-05-10T09:02:47.299Z,75.20996
2023-05-10T09:04:47.366Z,70.05273
2023-05-10T09:06:47.228Z,71.64258
2023-05-10T09:08:47.352Z,72.81738
2023-05-10T09:10:47.396Z,72.03906
2023-05-10T09:13:29.528Z,71.47754
2023-05-10T09:15:29.424Z,74.3125
2023-05-10T09:17:29.703Z,72.2959
2023-05-10T09:19:29.484Z,72.39941
2023-05-10T09:21:29.471Z,73.62012
2023-05-10T09:23:29.463Z,71.62695
2023-05-10T09:25:29.498Z,70.23242
2023-05-10T09:28:38.318Z,73.50391
2023-05-10T09:30:38.505Z,71.78223
2023-05-10T09:32:38.422Z,73.55469
2023-05-10T09:34:38.410Z,72.2959
2023-05-10T09:36:38.496Z,71.7168
2023-05-10T09:38:38.402Z,74.11621
2023-05-10T09:40:38.324Z,74.29004
2023-05-10T09:44:33.844Z,73.54785
2023-05-10T09:46:34.035Z,73.82227
2023-05-10T09:48:33.890Z,73.63184
2023-05-10T09:50:33.912Z,74.78809
2023-05-10T09:52:33.960Z,73.46191
2023-05-10T09:54:33.823Z,72.38086
2023-05-10T09:56:33.857Z,71.28223
2023-05-10T09:59:39.276Z,74.8877
2023-05-10T10:01:39.232Z,76.07715
2023-05-10T10:03:39.203Z,74.17578
2023-05-10T10:05:39.222Z,72.58008
2023-05-10T10:07:39.110Z,73.7002
2023-05-10T10:09:39.293Z,71.67383
2023-05-10T10:11:39.219Z,72.54492
2023-05-10T10:14:16.181Z,73.95996
2023-05-10T10:16:16.229Z,74.00098
2023-05-10T10:18:16.470Z,75.11914
2023-05-10T10:20:16.784Z,72.94336
2023-05-10T10:22:16.288Z,72.73242
2023-05-10T10:24:16.208Z,73.61719
2023-05-10T10:26:16.120Z,70.14551
2023-05-10T10:29:14.946Z,72.24805
2023-05-10T10:31:15.032Z,70.52734
2023-05-10T10:33:28.659Z,70.85547
2023-05-10T10:35:15.316Z,68.32422
2023-05-10T10:37:15.026Z,68.90918
2023-05-10T10:39:15.257Z,69.09473
2023-05-10T10:41:15.105Z,73.68457
2023-05-10T10:43:15.196Z,73.02637
2023-05-10T10:44:53.146Z,69.27344
2023-05-10T10:46:53.117Z,70.86328
2023-05-10T10:48:53.118Z,70.18652
2023-05-10T10:50:53.086Z,70.23633
2023-05-10T10:52:53.141Z,68.13281
2023-05-10T10:54:53.008Z,71.74805
2023-05-10T10:56:53.123Z,69.7334
2023-05-10T11:00:21.459Z,70.10449
2023-05-10T11:02:21.343Z,70.52832
2023-05-10T11:04:21.546Z,72.15234
2023-05-10T11:06:21.367Z,68.94238
2023-05-10T11:08:21.392Z,69.23242
2023-05-10T11:10:21.330Z,69.56055
2023-05-10T11:12:21.361Z,70.27148
2023-05-10T11:15:04.492Z,71.5752
2023-05-10T11:17:04.632Z,73.40234
2023-05-10T11:19:04.988Z,71.42188
2023-05-10T11:21:04.561Z,68.75684
2023-05-10T11:23:04.546Z,66.75293
2023-05-10T11:25:04.535Z,68.68457
2023-05-10T11:27:04.478Z,69.03809
2023-05-10T11:30:46.489Z,72.23242
2023-05-10T11:32:46.606Z,70.21484
2023-05-10T11:34:46.640Z,71.9834
2023-05-10T11:36:46.436Z,69.98926
2023-05-10T11:38:46.475Z,67.20215
2023-05-10T11:40:46.994Z,66.44336
2023-05-10T11:42:46.424Z,66.44336
2023-05-10T11:45:49.733Z,67.68164
2023-05-10T11:47:49.641Z,68.83105
2023-05-10T11:49:49.449Z,69.5459
2023-05-10T11:51:49.527Z,69.09473
2023-05-10T11:53:49.391Z,69.97852
2023-05-10T11:55:49.389Z,70.04395
2023-05-10T11:57:49.506Z,70.1377
2023-05-10T12:00:24.993Z,68.65137
2023-05-10T12:02:25.096Z,69.17188
2023-05-10T12:04:24.920Z,69.05957
2023-05-10T12:06:24.920Z,68.0459
2023-05-10T12:08:24.947Z,66.68848
2023-05-10T12:10:25.047Z,67.72656
2023-05-10T12:12:24.928Z,69.83594
2023-05-10T12:15:41.251Z,68.49023
2023-05-10T12:17:43.696Z,69.15137
2023-05-10T12:19:41.242Z,70.68555
2023-05-10T12:21:41.082Z,70.45898
2023-05-10T12:23:41.212Z,68.49219
2023-05-10T12:25:41.104Z,69.42676
2023-05-10T12:27:41.110Z,69.54199
2023-05-10T12:31:00.306Z,73.47754
2023-05-10T12:33:00.422Z,72.66504
2023-05-10T12:35:00.262Z,73.04004
2023-05-10T12:37:00.250Z,69.59766
2023-05-10T12:39:00.420Z,69.06836
2023-05-10T12:41:00.338Z,68.96484
2023-05-10T12:43:00.214Z,67.44629
2023-05-10T12:46:04.816Z,68.19531
2023-05-10T12:48:04.780Z,68.31543
2023-05-10T12:50:04.591Z,67.17383
2023-05-10T12:52:04.512Z,68.8584
2023-05-10T12:54:04.531Z,69.40723
2023-05-10T12:56:04.521Z,68.7627
2023-05-10T12:58:04.365Z,74.12695
2023-05-10T13:01:39.536Z,70.25293
2023-05-10T13:03:39.104Z,69.95703
2023-05-10T13:05:39.116Z,69.54688
2023-05-10T13:07:39.153Z,72.10547
2023-05-10T13:09:39.247Z,70.95996
2023-05-10T13:11:39.103Z,67.71973
2023-05-10T13:13:39.045Z,67.0332
2023-05-10T13:16:43.963Z,68.1709
2023-05-10T13:18:43.797Z,68.54395
2023-05-10T13:20:43.758Z,66.27441
2023-05-10T13:22:43.589Z,66.87207
2023-05-10T13:24:43.746Z,68.35449
2023-05-10T13:26:43.699Z,67.11719
2023-05-10T13:28:43.853Z,66.00684
2023-05-10T13:31:18.327Z,66.55078
2023-05-10T13:33:18.065Z,66.66406
2023-05-10T13:35:18.050Z,67.18164
2023-05-10T13:37:18.484Z,67.24609
2023-05-10T13:39:18.064Z,70.30566
2023-05-10T13:41:18.081Z,68.79492
2023-05-10T13:43:18.039Z,68.10254
2023-05-10T13:47:02.831Z,65.86816
2023-05-10T13:49:02.540Z,63.28418
2023-05-10T13:51:02.417Z,66.30566
2023-05-10T13:53:02.372Z,65.61523
2023-05-10T13:55:02.407Z,67.95996
2023-05-10T13:57:02.425Z,64.59082
2023-05-10T13:59:02.329Z,66.4209
2023-05-10T14:01:34.414Z,66.54004
2023-05-10T14:03:34.491Z,65.46973
2023-05-10T14:05:34.372Z,68.01563
2023-05-10T14:07:34.299Z,66.84277
2023-05-10T14:09:34.313Z,65.04883
2023-05-10T14:11:34.312Z,67.04688
2023-05-10T14:13:34.328Z,64.85742
2023-05-10T14:15:34.299Z,66.56543
2023-05-10T14:17:14.420Z,67.98438
2023-05-10T14:19:14.404Z,67.21875
2023-05-10T14:21:14.558Z,63.99023
2023-05-10T14:23:14.384Z,66.36719
2023-05-10T14:25:14.807Z,67.10938
2023-05-10T14:27:14.655Z,66.18555
2023-05-10T14:29:14.579Z,66.75195
2023-05-10T14:32:21.919Z,65.34473
2023-05-10T14:34:21.874Z,65.11914
2023-05-10T14:36:21.928Z,64.47754
2023-05-10T14:38:21.917Z,65.78027
2023-05-10T14:40:21.867Z,66.46484
2023-05-10T14:42:21.931Z,66.38574
2023-05-10T14:44:22.094Z,66.95703
2023-05-10T14:47:27.214Z,66.24219
2023-05-10T14:49:27.186Z,65.36133
2023-05-10T14:51:27.148Z,65.82324
2023-05-10T14:53:27.312Z,67.74707
2023-05-10T14:55:27.165Z,66.80078
2023-05-10T14:57:27.268Z,65.88086
2023-05-10T14:59:27.631Z,66.29883
2023-05-10T15:02:56.581Z,66.69043
2023-05-10T15:04:56.069Z,65.48438
2023-05-10T15:06:55.977Z,65.36035
2023-05-10T15:08:55.926Z,63.96777
2023-05-10T15:10:55.992Z,65.06738
2023-05-10T15:12:55.929Z,65.77051
2023-05-10T15:14:55.814Z,65.42871
2023-05-10T15:18:16.191Z,64.80957
2023-05-10T15:20:16.022Z,65.92773
2023-05-10T15:22:16.177Z,64.58008
2023-05-10T15:24:16.022Z,66.54883
2023-05-10T15:26:16.105Z,66.66797
2023-05-10T15:28:16.073Z,65.0957
2023-05-10T15:30:16.141Z,64.98242
2023-05-10T15:33:11.070Z,65.82324
2023-05-10T15:35:10.955Z,64.41504
2023-05-10T15:37:10.862Z,64.81738
2023-05-10T15:39:10.984Z,64.99316
2023-05-10T15:41:10.975Z,65.31836
2023-05-10T15:43:11.007Z,65.3252
2023-05-10T15:45:11.023Z,66.2334
2023-05-10T15:47:39.566Z,65.24219
2023-05-10T15:49:39.355Z,66.2168
2023-05-10T15:51:39.317Z,67.95801
2023-05-10T15:53:53.078Z,67.36426
2023-05-10T15:55:39.283Z,65.21094
2023-05-10T15:57:39.608Z,67.49414
2023-05-10T15:59:39.382Z,66.44922
2023-05-10T16:01:39.316Z,67.41113
2023-05-10T16:03:07.705Z,68.27637
2023-05-10T16:05:07.569Z,68.52148
2023-05-10T16:07:07.461Z,67.94727
2023-05-10T16:09:07.604Z,67.56055
2023-05-10T16:11:07.658Z,67.70215
2023-05-10T16:13:07.677Z,68.93457
2023-05-10T16:15:07.525Z,68.78711
2023-05-10T16:18:08.081Z,68.23633
2023-05-10T16:20:07.989Z,65.73926
2023-05-10T16:22:07.939Z,69.7998
2023-05-10T16:24:08.005Z,68.38965
2023-05-10T16:26:07.788Z,67.02734
2023-05-10T16:28:07.835Z,67.24609
2023-05-10T16:30:07.825Z,66.48047
2023-05-10T16:32:07.872Z,66.34863
2023-05-10T16:33:56.697Z,67.64063
2023-05-10T16:35:57.185Z,67.41797
2023-05-10T16:37:56.529Z,67.86523
2023-05-10T16:39:56.601Z,67.86426
2023-05-10T16:41:56.521Z,67.22949
2023-05-10T16:43:56.558Z,66.71582
2023-05-10T16:45:56.704Z,65.49707
2023-05-10T16:49:17.230Z,66.14453
2023-05-10T16:51:17.375Z,66.4541
2023-05-10T16:53:17.535Z,66.33203
2023-05-10T16:55:17.665Z,67.55762
2023-05-10T16:57:17.293Z,67.38281
2023-05-10T16:59:17.523Z,68.62305
2023-05-10T17:01:17.296Z,67.41504
2023-05-10T17:03:36.102Z,66.5127
2023-05-10T17:05:36.180Z,66.42676
2023-05-10T17:07:35.754Z,66.86523
2023-05-10T17:09:36.207Z,66.51074
2023-05-10T17:11:35.863Z,66.41504
2023-05-10T17:13:35.851Z,65.96777
2023-05-10T17:15:36.066Z,65.29297
2023-05-10T17:17:35.834Z,66.42676
2023-05-10T17:19:06.417Z,65.50195
2023-05-10T17:21:05.851Z,66.27539
2023-05-10T17:23:05.999Z,67.16602
2023-05-10T17:25:05.964Z,68.25391
2023-05-10T17:27:05.912Z,68.5332
2023-05-10T17:29:05.974Z,68.15234
2023-05-10T17:31:06.100Z,68.16309
2023-05-10T17:34:34.550Z,68.15137
2023-05-10T17:36:34.472Z,68.7793
2023-05-10T17:38:34.423Z,68.13281
2023-05-10T17:40:34.436Z,67.77441
2023-05-10T17:42:34.455Z,67.35742
2023-05-10T17:44:34.499Z,68.22949
2023-05-10T17:46:34.321Z,67.48438
2023-05-10T17:49:33.235Z,67.46191
2023-05-10T17:51:33.344Z,66.5293
2023-05-10T17:53:33.180Z,67.57129
2023-05-10T17:55:33.593Z,69.06543
2023-05-10T17:57:33.558Z,68.95898
2023-05-10T17:59:33.696Z,68.7627
2023-05-10T18:01:33.897Z,68.25488
2023-05-10T18:04:21.773Z,68.43848
2023-05-10T18:06:21.615Z,67.08496
2023-05-10T18:08:21.906Z,67.48828
2023-05-10T18:10:21.918Z,67.91016
2023-05-10T18:12:21.593Z,67.6123
2023-05-10T18:14:40.355Z,67.39258
2023-05-10T18:16:21.460Z,68.05469
2023-05-10T18:20:08.726Z,66.9541
2023-05-10T18:22:11.274Z,67.77441
2023-05-10T18:24:09.228Z,68.31348
2023-05-10T18:26:08.704Z,67.16895
2023-05-10T18:28:08.718Z,68.50195
2023-05-10T18:30:08.807Z,67.96777
2023-05-10T18:32:08.885Z,69.1377
2023-05-10T18:34:56.559Z,68.49902
2023-05-10T18:36:56.667Z,68.69238
2023-05-10T18:38:56.537Z,67.36035
2023-05-10T18:40:56.557Z,68.23828
2023-05-10T18:42:56.575Z,68.32031
2023-05-10T18:44:56.545Z,68.10156
2023-05-10T18:46:56.446Z,67.875
2023-05-10T18:50:36.000Z,68.79688
2023-05-10T18:52:35.869Z,67.56641
2023-05-10T18:54:36.156Z,68.58984
2023-05-10T18:56:35.964Z,68.40625
2023-05-10T18:58:36.310Z,68.29004
2023-05-10T19:00:36.164Z,69.21484
2023-05-10T19:02:36.347Z,69.50195
2023-05-10T19:05:36.843Z,68.96094
2023-05-10T19:07:36.803Z,68.29102
2023-05-10T19:09:36.831Z,67.40039
2023-05-10T19:11:36.828Z,68.23242
2023-05-10T19:13:37.057Z,68.44238
2023-05-10T19:15:36.938Z,67.57813
2023-05-10T19:17:37.021Z,68.06641
2023-05-10T19:20:05.513Z,68.05762
2023-05-10T19:22:05.469Z,67.0957
2023-05-10T19:24:05.344Z,66.89063
2023-05-10T19:26:05.534Z,67.18262
2023-05-10T19:28:05.609Z,67.58887
2023-05-10T19:30:05.419Z,67.21777
2023-05-10T19:32:05.485Z,68.75293
2023-05-10T19:34:06.198Z,68.7373
2023-05-10T19:36:08.762Z,68.77539
2023-05-10T19:38:08.200Z,68.25977
2023-05-10T19:40:08.994Z,68.14941
2023-05-10T19:42:08.262Z,68.36328
2023-05-10T19:44:08.167Z,69.2207
2023-05-10T19:46:08.525Z,68.29883
2023-05-10T19:48:08.547Z,68.64063
2023-05-10T19:50:39.513Z,69.56543
2023-05-10T19:52:39.512Z,69.23242
2023-05-10T19:54:39.500Z,69.89648
2023-05-10T19:56:39.427Z,69.98438
2023-05-10T19:58:39.733Z,70.0957
2023-05-10T20:00:39.536Z,69.93945
2023-05-10T20:02:39.852Z,70.03027
2023-05-10T20:06:00.913Z,68.92773
2023-05-10T20:08:00.710Z,70.65332
2023-05-10T20:10:00.758Z,69.82813
2023-05-10T20:12:00.800Z,70.5957
2023-05-10T20:14:00.762Z,69.84668
2023-05-10T20:16:00.765Z,69.65332
2023-05-10T20:18:00.816Z,69.54785
2023-05-10T20:21:17.477Z,69.22461
2023-05-10T20:23:17.292Z,69.21191
2023-05-10T20:25:17.289Z,68.86328
2023-05-10T20:27:17.488Z,69.37695
2023-05-10T20:29:17.545Z,68.9541
2023-05-10T20:31:17.489Z,69.51855
2023-05-10T20:33:17.499Z,68.16211
2023-05-10T20:36:34.809Z,67.9043
2023-05-10T20:38:34.947Z,67.74121
2023-05-10T20:40:34.534Z,69.09375
2023-05-10T20:42:34.812Z,68.45117
2023-05-10T20:44:34.767Z,68.1748
2023-05-10T20:46:34.716Z,68.16016
2023-05-10T20:48:34.702Z,67.90625
2023-05-10T20:51:46.328Z,67.86133
2023-05-10T20:53:46.657Z,68.46582
2023-05-10T20:55:46.287Z,68.02441
2023-05-10T20:57:46.648Z,68.14746
2023-05-10T20:59:46.494Z,68.59277
2023-05-10T21:01:46.270Z,68.06348
2023-05-10T21:03:46.151Z,68.96973
2023-05-10T21:06:52.814Z,69.27051
2023-05-10T21:08:52.758Z,69.39453
2023-05-10T21:10:52.811Z,70.01074
2023-05-10T21:12:52.851Z,69.78613
2023-05-10T21:14:52.837Z,70.26367
2023-05-10T21:16:52.793Z,70.03711
2023-05-10T21:18:52.975Z,70.19238
2023-05-10T21:21:23.841Z,70.68262
2023-05-10T21:23:23.769Z,71.46777
2023-05-10T21:25:23.765Z,71.63184
2023-05-10T21:27:23.773Z,71.1377
2023-05-10T21:29:23.800Z,70.19336
2023-05-10T21:31:23.916Z,70.80078
2023-05-10T21:33:23.820Z,70.40625
2023-05-10T21:35:23.709Z,69.42383
2023-05-10T21:36:41.820Z,69.41895
2023-05-10T21:38:41.881Z,70.14746
2023-05-10T21:40:41.799Z,71.0166
2023-05-10T21:42:41.783Z,70.3916
2023-05-10T21:44:41.843Z,70.56836
2023-05-10T21:46:41.930Z,70.7041
2023-05-10T21:48:41.801Z,70.13379
2023-05-10T21:52:17.134Z,69.47266
2023-05-10T21:54:17.395Z,69.68848
2023-05-10T21:56:17.178Z,69.42676
2023-05-10T21:58:17.176Z,69.86133
2023-05-10T22:00:17.486Z,69.33984
2023-05-10T22:02:17.401Z,69.87109
2023-05-10T22:04:17.250Z,69.05078
2023-05-10T22:06:49.225Z,68.16211
2023-05-10T22:08:49.372Z,71.09766
2023-05-10T22:10:49.221Z,71.60352
2023-05-10T22:12:49.160Z,71.18945
2023-05-10T22:15:10.136Z,71.05078
2023-05-10T22:16:49.237Z,69.5752
2023-05-10T22:18:49.269Z,70.75977
2023-05-10T22:20:48.967Z,70.70313
2023-05-10T22:22:35.736Z,72.70117
2023-05-10T22:24:35.717Z,71.04102
2023-05-10T22:26:35.644Z,70.60254
2023-05-10T22:28:36.039Z,71.06445
2023-05-10T22:30:35.790Z,71.23145
2023-05-10T22:32:35.680Z,71.00879
2023-05-10T22:34:35.718Z,70.0127
2023-05-10T22:38:08.898Z,70.63281
2023-05-10T22:40:08.844Z,70.11426
2023-05-10T22:42:09.111Z,70.20508
2023-05-10T22:44:08.942Z,70.53418
2023-05-10T22:46:09.265Z,70.08105
2023-05-10T22:48:09.149Z,69.09668
2023-05-10T22:50:08.921Z,69.1543
2023-05-10T22:52:33.626Z,69.67969
2023-05-10T22:54:36.478Z,69.11914
2023-05-10T22:56:33.583Z,69.93555
2023-05-10T22:58:33.646Z,69.58398
2023-05-10T23:00:33.598Z,68.36719
2023-05-10T23:02:33.819Z,69.125
2023-05-10T23:04:33.797Z,70.30762
2023-05-10T23:07:55.245Z,70.0332
2023-05-10T23:09:55.140Z,70.14746
2023-05-10T23:11:55.150Z,70.46582
2023-05-10T23:13:55.133Z,70.50781
2023-05-10T23:15:55.237Z,70.83594
2023-05-10T23:17:55.427Z,70.73242
2023-05-10T23:19:56.216Z,69.34277
2023-05-10T23:23:06.781Z,68.92383
2023-05-10T23:25:06.732Z,68.68066
2023-05-10T23:27:06.886Z,69.52246
2023-05-10T23:29:06.887Z,69.98535
2023-05-10T23:31:06.847Z,69.22363
2023-05-10T23:33:06.815Z,69.33984
2023-05-10T23:35:06.751Z,70.24805
2023-05-10T23:38:05.585Z,70.56738
2023-05-10T23:40:05.653Z,71.66992
2023-05-10T23:42:05.520Z,70.98535
2023-05-10T23:44:05.513Z,71.19727
2023-05-10T23:46:06.163Z,70.95117
2023-05-10T23:48:05.715Z,70.62793
2023-05-10T23:50:05.793Z,70.42285
2023-05-10T23:53:49.931Z,73.08984
2023-05-10T23:55:49.585Z,72.90039
2023-05-10T23:57:49.657Z,72.00879
2023-05-10T23:59:49.517Z,72.10156
